sensor_id;sensor_type;location;lat;lon;timestamp;P1;durP1;ratioP1;P2;durP2;ratioP2
45540;SDS011;31265;49.680;8.608;2024-03-23T00:55:21;12.35;;;4.93;;
45540;SDS011;31265;49.680;8.608;2024-03-23T00:57:47;11.05;;;5.40;;
45540;SDS011;31265;49.680;8.608;2024-03-23T01:00:18;9.57;;;4.18;;
45540;SDS011;31265;49.680;8.608;2024-03-23T01:02:45;12.60;;;5.55;;
45540;SDS011;31265;49.680;8.608;2024-03-23T01:05:14;5.82;;;3.40;;
45540;SDS011;31265;49.680;8.608;2024-03-23T01:07:40;8.10;;;4.25;;
45540;SDS011;31265;49.680;8.608;2024-03-23T01:10:10;9.52;;;4.93;;
45540;SDS011;31265;49.680;8.608;2024-03-23T01:12:36;9.82;;;4.75;;
45540;SDS011;31265;49.680;8.608;2024-03-23T01:15:04;8.88;;;4.45;;
45540;SDS011;31265;49.680;8.608;2024-03-23T01:17:31;12.02;;;5.20;;
45540;SDS011;31265;49.680;8.608;2024-03-23T01:19:58;7.35;;;3.60;;
45540;SDS011;31265;49.680;8.608;2024-03-23T01:22:25;7.90;;;4.13;;
45540;SDS011;31265;49.680;8.608;2024-03-23T01:24:52;6.68;;;4.43;;
45540;SDS011;31265;49.680;8.608;2024-03-23T01:27:22;8.50;;;3.92;;
45540;SDS011;31265;49.680;8.608;2024-03-23T01:29:50;8.90;;;4.20;;
45540;SDS011;31265;49.680;8.608;2024-03-23T01:32:18;10.90;;;4.38;;
45540;SDS011;31265;49.680;8.608;2024-03-23T01:34:45;7.07;;;3.78;;
45540;SDS011;31265;49.680;8.608;2024-03-23T01:37:12;8.10;;;3.50;;
45540;SDS011;31265;49.680;8.608;2024-03-23T01:39:41;7.70;;;4.63;;
45540;SDS011;31265;49.680;8.608;2024-03-23T01:42:08;8.10;;;4.50;;
45540;SDS011;31265;49.680;8.608;2024-03-23T01:44:38;7.20;;;3.55;;
45540;SDS011;31265;49.680;8.608;2024-03-23T01:47:04;9.00;;;4.38;;
45540;SDS011;31265;49.680;8.608;2024-03-23T01:52:00;5.57;;;3.47;;
45540;SDS011;31265;49.680;8.608;2024-03-23T01:54:28;7.60;;;4.43;;
45540;SDS011;31265;49.680;8.608;2024-03-23T01:56:55;7.88;;;4.43;;
45540;SDS011;31265;49.680;8.608;2024-03-23T01:59:23;6.55;;;4.13;;
45540;SDS011;31265;49.680;8.608;2024-03-23T02:01:50;10.65;;;4.47;;
45540;SDS011;31265;49.680;8.608;2024-03-23T02:04:21;10.32;;;5.47;;
45540;SDS011;31265;49.680;8.608;2024-03-23T02:06:48;7.90;;;4.28;;
45540;SDS011;31265;49.680;8.608;2024-03-23T02:09:16;9.85;;;3.85;;
45540;SDS011;31265;49.680;8.608;2024-03-23T02:11:43;8.68;;;4.28;;
45540;SDS011;31265;49.680;8.608;2024-03-23T02:14:10;6.55;;;3.92;;
45540;SDS011;31265;49.680;8.608;2024-03-23T02:16:37;11.43;;;4.75;;
45540;SDS011;31265;49.680;8.608;2024-03-23T02:19:05;8.35;;;4.53;;
45540;SDS011;31265;49.680;8.608;2024-03-23T02:21:32;9.60;;;4.78;;
45540;SDS011;31265;49.680;8.608;2024-03-23T02:24:01;7.20;;;4.43;;
45540;SDS011;31265;49.680;8.608;2024-03-23T02:26:28;8.25;;;4.47;;
45540;SDS011;31265;49.680;8.608;2024-03-23T02:28:55;8.63;;;4.25;;
45540;SDS011;31265;49.680;8.608;2024-03-23T02:31:21;12.18;;;5.07;;
45540;SDS011;31265;49.680;8.608;2024-03-23T02:33:50;6.80;;;4.15;;
45540;SDS011;31265;49.680;8.608;2024-03-23T02:36:17;9.60;;;5.38;;
45540;SDS011;31265;49.680;8.608;2024-03-23T02:38:49;9.57;;;5.03;;
45540;SDS011;31265;49.680;8.608;2024-03-23T02:41:17;7.30;;;4.20;;
45540;SDS011;31265;49.680;8.608;2024-03-23T02:43:50;11.75;;;5.20;;
45540;SDS011;31265;49.680;8.608;2024-03-23T02:46:16;12.27;;;5.40;;
45540;SDS011;31265;49.680;8.608;2024-03-23T02:48:44;13.18;;;4.60;;
45540;SDS011;31265;49.680;8.608;2024-03-23T02:51:11;10.77;;;4.88;;
45540;SDS011;31265;49.680;8.608;2024-03-23T02:53:38;7.43;;;4.00;;
45540;SDS011;31265;49.680;8.608;2024-03-23T02:56:05;8.27;;;4.53;;
45540;SDS011;31265;49.680;8.608;2024-03-23T02:58:34;11.18;;;5.22;;
45540;SDS011;31265;49.680;8.608;2024-03-23T03:01:02;8.27;;;4.45;;
45540;SDS011;31265;49.680;8.608;2024-03-23T03:03:29;9.80;;;4.57;;
45540;SDS011;31265;49.680;8.608;2024-03-23T03:05:56;10.02;;;4.97;;
45540;SDS011;31265;49.680;8.608;2024-03-23T03:08:23;9.32;;;4.30;;
45540;SDS011;31265;49.680;8.608;2024-03-23T03:10:51;10.63;;;4.57;;
45540;SDS011;31265;49.680;8.608;2024-03-23T03:13:18;8.07;;;4.50;;
45540;SDS011;31265;49.680;8.608;2024-03-23T03:15:46;11.98;;;4.82;;
45540;SDS011;31265;49.680;8.608;2024-03-23T03:18:13;9.13;;;4.82;;
45540;SDS011;31265;49.680;8.608;2024-03-23T03:20:40;9.50;;;5.32;;
45540;SDS011;31265;49.680;8.608;2024-03-23T03:23:07;13.20;;;4.97;;
45540;SDS011;31265;49.680;8.608;2024-03-23T03:25:36;9.05;;;5.10;;
45540;SDS011;31265;49.680;8.608;2024-03-23T03:28:04;9.35;;;5.40;;
45540;SDS011;31265;49.680;8.608;2024-03-23T03:30:32;10.63;;;5.03;;
45540;SDS011;31265;49.680;8.608;2024-03-23T03:33:01;8.60;;;5.47;;
45540;SDS011;31265;49.680;8.608;2024-03-23T03:35:27;10.95;;;5.57;;
45540;SDS011;31265;49.680;8.608;2024-03-23T03:37:56;9.38;;;5.22;;
45540;SDS011;31265;49.680;8.608;2024-03-23T03:40:22;7.93;;;4.18;;
45540;SDS011;31265;49.680;8.608;2024-03-23T03:42:50;13.93;;;5.60;;
45540;SDS011;31265;49.680;8.608;2024-03-23T03:45:16;12.93;;;5.55;;
45540;SDS011;31265;49.680;8.608;2024-03-23T03:47:44;14.85;;;5.95;;
45540;SDS011;31265;49.680;8.608;2024-03-23T03:50:12;11.55;;;5.50;;
45540;SDS011;31265;49.680;8.608;2024-03-23T03:52:44;11.38;;;6.53;;
45540;SDS011;31265;49.680;8.608;2024-03-23T03:55:12;12.63;;;6.28;;
45540;SDS011;31265;49.680;8.608;2024-03-23T03:57:40;14.98;;;5.82;;
45540;SDS011;31265;49.680;8.608;2024-03-23T04:00:07;11.30;;;5.53;;
45540;SDS011;31265;49.680;8.608;2024-03-23T04:02:36;12.30;;;6.00;;
45540;SDS011;31265;49.680;8.608;2024-03-23T04:05:03;14.05;;;5.97;;
45540;SDS011;31265;49.680;8.608;2024-03-23T04:07:32;14.32;;;5.95;;
45540;SDS011;31265;49.680;8.608;2024-03-23T04:09:59;12.32;;;5.82;;
45540;SDS011;31265;49.680;8.608;2024-03-23T04:12:27;10.68;;;5.00;;
45540;SDS011;31265;49.680;8.608;2024-03-23T04:14:53;10.98;;;5.53;;
45540;SDS011;31265;49.680;8.608;2024-03-23T04:17:22;11.20;;;5.38;;
45540;SDS011;31265;49.680;8.608;2024-03-23T04:19:50;12.10;;;5.35;;
45540;SDS011;31265;49.680;8.608;2024-03-23T04:22:18;13.77;;;6.38;;
45540;SDS011;31265;49.680;8.608;2024-03-23T04:24:46;14.15;;;6.40;;
45540;SDS011;31265;49.680;8.608;2024-03-23T04:27:13;12.23;;;6.20;;
45540;SDS011;31265;49.680;8.608;2024-03-23T04:29:40;11.98;;;6.35;;
45540;SDS011;31265;49.680;8.608;2024-03-23T04:32:07;12.63;;;5.88;;
45540;SDS011;31265;49.680;8.608;2024-03-23T04:34:33;11.88;;;6.03;;
45540;SDS011;31265;49.680;8.608;2024-03-23T04:37:01;10.27;;;4.65;;
45540;SDS011;31265;49.680;8.608;2024-03-23T04:39:30;12.82;;;4.78;;
45540;SDS011;31265;49.680;8.608;2024-03-23T04:41:59;12.45;;;5.70;;
45540;SDS011;31265;49.680;8.608;2024-03-23T04:44:27;15.25;;;6.07;;
45540;SDS011;31265;49.680;8.608;2024-03-23T04:46:54;13.52;;;5.68;;
45540;SDS011;31265;49.680;8.608;2024-03-23T04:49:24;14.75;;;6.00;;
45540;SDS011;31265;49.680;8.608;2024-03-23T04:51:53;10.30;;;5.05;;
45540;SDS011;31265;49.680;8.608;2024-03-23T04:54:21;12.57;;;5.97;;
45540;SDS011;31265;49.680;8.608;2024-03-23T04:56:48;9.70;;;5.20;;
45540;SDS011;31265;49.680;8.608;2024-03-23T04:59:19;16.77;;;7.07;;
45540;SDS011;31265;49.680;8.608;2024-03-23T05:01:47;7.38;;;3.67;;
45540;SDS011;31265;49.680;8.608;2024-03-23T05:04:15;6.25;;;2.88;;
45540;SDS011;31265;49.680;8.608;2024-03-23T05:06:42;6.88;;;3.08;;
45540;SDS011;31265;49.680;8.608;2024-03-23T05:09:09;7.90;;;3.45;;
45540;SDS011;31265;49.680;8.608;2024-03-23T05:11:37;6.13;;;2.35;;
45540;SDS011;31265;49.680;8.608;2024-03-23T05:14:05;5.25;;;2.78;;
45540;SDS011;31265;49.680;8.608;2024-03-23T05:16:34;5.32;;;2.63;;
45540;SDS011;31265;49.680;8.608;2024-03-23T05:19:02;6.77;;;2.57;;
45540;SDS011;31265;49.680;8.608;2024-03-23T05:21:28;4.80;;;2.05;;
45540;SDS011;31265;49.680;8.608;2024-03-23T05:23:56;5.03;;;1.83;;
45540;SDS011;31265;49.680;8.608;2024-03-23T05:26:22;4.40;;;1.35;;
45540;SDS011;31265;49.680;8.608;2024-03-23T05:28:50;2.85;;;1.08;;
45540;SDS011;31265;49.680;8.608;2024-03-23T05:31:24;3.10;;;1.50;;
45540;SDS011;31265;49.680;8.608;2024-03-23T05:33:53;2.22;;;0.63;;
45540;SDS011;31265;49.680;8.608;2024-03-23T05:36:20;3.20;;;1.02;;
45540;SDS011;31265;49.680;8.608;2024-03-23T05:38:49;2.00;;;0.93;;
45540;SDS011;31265;49.680;8.608;2024-03-23T05:41:16;5.35;;;1.05;;
45540;SDS011;31265;49.680;8.608;2024-03-23T05:43:44;1.88;;;0.70;;
45540;SDS011;31265;49.680;8.608;2024-03-23T05:46:11;3.70;;;1.10;;
45540;SDS011;31265;49.680;8.608;2024-03-23T05:48:39;1.67;;;0.80;;
45540;SDS011;31265;49.680;8.608;2024-03-23T05:51:07;2.28;;;1.05;;
45540;SDS011;31265;49.680;8.608;2024-03-23T05:53:34;4.73;;;0.77;;
45540;SDS011;31265;49.680;8.608;2024-03-23T05:56:01;2.40;;;0.90;;
45540;SDS011;31265;49.680;8.608;2024-03-23T05:58:31;2.17;;;1.05;;
45540;SDS011;31265;49.680;8.608;2024-03-23T06:00:58;2.58;;;0.85;;
45540;SDS011;31265;49.680;8.608;2024-03-23T06:03:26;1.83;;;0.80;;
45540;SDS011;31265;49.680;8.608;2024-03-23T06:05:52;2.05;;;0.80;;
45540;SDS011;31265;49.680;8.608;2024-03-23T06:08:22;1.60;;;0.70;;
45540;SDS011;31265;49.680;8.608;2024-03-23T06:10:48;2.80;;;0.75;;
45540;SDS011;31265;49.680;8.608;2024-03-23T06:13:16;1.73;;;0.68;;
45540;SDS011;31265;49.680;8.608;2024-03-23T06:15:43;2.80;;;0.80;;
45540;SDS011;31265;49.680;8.608;2024-03-23T06:18:15;1.23;;;0.50;;
45540;SDS011;31265;49.680;8.608;2024-03-23T06:20:41;1.25;;;0.57;;
45540;SDS011;31265;49.680;8.608;2024-03-23T06:23:09;1.35;;;0.55;;
45540;SDS011;31265;49.680;8.608;2024-03-23T06:25:37;0.93;;;0.50;;
45540;SDS011;31265;49.680;8.608;2024-03-23T06:28:04;0.80;;;0.47;;
45540;SDS011;31265;49.680;8.608;2024-03-23T06:30:31;1.10;;;0.40;;
45540;SDS011;31265;49.680;8.608;2024-03-23T06:32:59;0.60;;;0.20;;
45540;SDS011;31265;49.680;8.608;2024-03-23T06:35:25;0.70;;;0.30;;
45540;SDS011;31265;49.680;8.608;2024-03-23T06:37:54;1.27;;;0.65;;
45540;SDS011;31265;49.680;8.608;2024-03-23T06:40:21;0.30;;;0.10;;
45540;SDS011;31265;49.680;8.608;2024-03-23T06:42:51;1.52;;;0.45;;
45540;SDS011;31265;49.680;8.608;2024-03-23T06:45:19;1.50;;;0.40;;
45540;SDS011;31265;49.680;8.608;2024-03-23T06:47:49;0.35;;;0.20;;
45540;SDS011;31265;49.680;8.608;2024-03-23T06:50:16;0.70;;;0.50;;
45540;SDS011;31265;49.680;8.608;2024-03-23T06:52:43;1.05;;;0.20;;
45540;SDS011;31265;49.680;8.608;2024-03-23T06:55:10;0.28;;;0.17;;
45540;SDS011;31265;49.680;8.608;2024-03-23T06:57:37;0.43;;;0.20;;
45540;SDS011;31265;49.680;8.608;2024-03-23T07:00:07;0.40;;;0.13;;
45540;SDS011;31265;49.680;8.608;2024-03-23T07:02:36;0.10;;;0.00;;
45540;SDS011;31265;49.680;8.608;2024-03-23T07:05:02;0.20;;;0.10;;
45540;SDS011;31265;49.680;8.608;2024-03-23T07:07:30;0.65;;;0.28;;
45540;SDS011;31265;49.680;8.608;2024-03-23T07:10:00;0.30;;;0.15;;
45540;SDS011;31265;49.680;8.608;2024-03-23T07:12:29;0.88;;;0.30;;
45540;SDS011;31265;49.680;8.608;2024-03-23T07:17:26;0.00;;;0.00;;
45540;SDS011;31265;49.680;8.608;2024-03-23T07:19:53;0.73;;;0.20;;
45540;SDS011;31265;49.680;8.608;2024-03-23T07:22:20;0.25;;;0.10;;
45540;SDS011;31265;49.680;8.608;2024-03-23T07:24:47;0.30;;;0.20;;
45540;SDS011;31265;49.680;8.608;2024-03-23T07:27:15;0.75;;;0.30;;
45540;SDS011;31265;49.680;8.608;2024-03-23T07:29:41;1.10;;;0.43;;
45540;SDS011;31265;49.680;8.608;2024-03-23T07:32:09;1.33;;;0.45;;
45540;SDS011;31265;49.680;8.608;2024-03-23T07:34:39;1.02;;;0.50;;
45540;SDS011;31265;49.680;8.608;2024-03-23T07:37:06;2.13;;;0.80;;
45540;SDS011;31265;49.680;8.608;2024-03-23T07:39:32;1.50;;;0.70;;
45540;SDS011;31265;49.680;8.608;2024-03-23T07:42:00;1.33;;;0.68;;
45540;SDS011;31265;49.680;8.608;2024-03-23T07:44:27;1.92;;;0.57;;
45540;SDS011;31265;49.680;8.608;2024-03-23T07:46:58;2.03;;;0.70;;
45540;SDS011;31265;49.680;8.608;2024-03-23T07:49:26;2.28;;;0.82;;
45540;SDS011;31265;49.680;8.608;2024-03-23T07:51:55;1.60;;;0.77;;
45540;SDS011;31265;49.680;8.608;2024-03-23T07:54:22;1.42;;;0.70;;
45540;SDS011;31265;49.680;8.608;2024-03-23T07:56:50;2.03;;;1.23;;
45540;SDS011;31265;49.680;8.608;2024-03-23T07:59:17;2.10;;;0.75;;
45540;SDS011;31265;49.680;8.608;2024-03-23T08:01:45;1.48;;;0.70;;
45540;SDS011;31265;49.680;8.608;2024-03-23T08:04:12;2.55;;;1.08;;
45540;SDS011;31265;49.680;8.608;2024-03-23T08:06:39;8.82;;;1.17;;
45540;SDS011;31265;49.680;8.608;2024-03-23T08:09:07;1.52;;;0.75;;
45540;SDS011;31265;49.680;8.608;2024-03-23T08:11:35;1.25;;;0.80;;
45540;SDS011;31265;49.680;8.608;2024-03-23T08:14:01;2.72;;;1.27;;
45540;SDS011;31265;49.680;8.608;2024-03-23T08:16:30;4.63;;;1.25;;
45540;SDS011;31265;49.680;8.608;2024-03-23T08:18:58;3.67;;;1.00;;
45540;SDS011;31265;49.680;8.608;2024-03-23T08:21:25;3.75;;;0.95;;
45540;SDS011;31265;49.680;8.608;2024-03-23T08:23:52;2.33;;;1.05;;
45540;SDS011;31265;49.680;8.608;2024-03-23T08:26:21;2.53;;;1.13;;
45540;SDS011;31265;49.680;8.608;2024-03-23T08:28:49;2.33;;;0.95;;
45540;SDS011;31265;49.680;8.608;2024-03-23T08:31:16;3.17;;;1.20;;
45540;SDS011;31265;49.680;8.608;2024-03-23T08:33:42;2.17;;;0.95;;
45540;SDS011;31265;49.680;8.608;2024-03-23T08:36:10;5.13;;;1.40;;
45540;SDS011;31265;49.680;8.608;2024-03-23T08:38:38;4.18;;;1.23;;
45540;SDS011;31265;49.680;8.608;2024-03-23T08:41:06;4.63;;;1.63;;
45540;SDS011;31265;49.680;8.608;2024-03-23T08:43:36;2.90;;;1.00;;
45540;SDS011;31265;49.680;8.608;2024-03-23T08:46:06;6.75;;;1.27;;
45540;SDS011;31265;49.680;8.608;2024-03-23T08:48:34;1.90;;;0.82;;
45540;SDS011;31265;49.680;8.608;2024-03-23T08:51:03;3.97;;;1.10;;
45540;SDS011;31265;49.680;8.608;2024-03-23T08:53:32;4.20;;;1.40;;
45540;SDS011;31265;49.680;8.608;2024-03-23T08:56:00;2.28;;;0.98;;
45540;SDS011;31265;49.680;8.608;2024-03-23T08:58:29;2.53;;;0.93;;
45540;SDS011;31265;49.680;8.608;2024-03-23T09:01:04;2.78;;;1.25;;
45540;SDS011;31265;49.680;8.608;2024-03-23T09:03:32;2.60;;;1.17;;
45540;SDS011;31265;49.680;8.608;2024-03-23T09:06:01;2.63;;;1.20;;
45540;SDS011;31265;49.680;8.608;2024-03-23T09:08:28;3.85;;;1.60;;
45540;SDS011;31265;49.680;8.608;2024-03-23T09:10:55;7.97;;;1.30;;
45540;SDS011;31265;49.680;8.608;2024-03-23T09:13:22;2.17;;;1.20;;
45540;SDS011;31265;49.680;8.608;2024-03-23T09:15:50;3.67;;;1.30;;
45540;SDS011;31265;49.680;8.608;2024-03-23T09:18:23;2.72;;;1.48;;
45540;SDS011;31265;49.680;8.608;2024-03-23T09:20:51;9.20;;;1.58;;
45540;SDS011;31265;49.680;8.608;2024-03-23T09:23:19;3.03;;;0.98;;
45540;SDS011;31265;49.680;8.608;2024-03-23T09:25:47;4.70;;;0.98;;
45540;SDS011;31265;49.680;8.608;2024-03-23T09:28:15;10.57;;;1.17;;
45540;SDS011;31265;49.680;8.608;2024-03-23T09:30:43;1.70;;;0.70;;
45540;SDS011;31265;49.680;8.608;2024-03-23T09:33:10;3.78;;;1.08;;
45540;SDS011;31265;49.680;8.608;2024-03-23T09:35:39;2.95;;;0.98;;
45540;SDS011;31265;49.680;8.608;2024-03-23T09:38:06;6.03;;;0.98;;
45540;SDS011;31265;49.680;8.608;2024-03-23T09:40:35;6.75;;;1.00;;
45540;SDS011;31265;49.680;8.608;2024-03-23T09:43:06;4.25;;;1.73;;
45540;SDS011;31265;49.680;8.608;2024-03-23T09:45:36;3.50;;;1.00;;
45540;SDS011;31265;49.680;8.608;2024-03-23T09:48:06;3.80;;;1.20;;
45540;SDS011;31265;49.680;8.608;2024-03-23T09:53:03;2.08;;;0.80;;
45540;SDS011;31265;49.680;8.608;2024-03-23T09:55:31;4.00;;;1.20;;
45540;SDS011;31265;49.680;8.608;2024-03-23T09:57:58;4.85;;;1.27;;
45540;SDS011;31265;49.680;8.608;2024-03-23T10:00:26;5.67;;;1.67;;
45540;SDS011;31265;49.680;8.608;2024-03-23T10:02:54;3.50;;;0.70;;
45540;SDS011;31265;49.680;8.608;2024-03-23T10:05:24;5.10;;;0.70;;
45540;SDS011;31265;49.680;8.608;2024-03-23T10:07:52;3.63;;;1.13;;
45540;SDS011;31265;49.680;8.608;2024-03-23T10:10:21;3.53;;;0.75;;
45540;SDS011;31265;49.680;8.608;2024-03-23T10:12:53;1.95;;;0.80;;
45540;SDS011;31265;49.680;8.608;2024-03-23T10:15:21;4.75;;;0.90;;
45540;SDS011;31265;49.680;8.608;2024-03-23T10:17:49;6.32;;;0.70;;
45540;SDS011;31265;49.680;8.608;2024-03-23T10:20:20;5.85;;;1.63;;
45540;SDS011;31265;49.680;8.608;2024-03-23T10:22:48;3.80;;;0.85;;
45540;SDS011;31265;49.680;8.608;2024-03-23T10:25:22;5.55;;;1.45;;
45540;SDS011;31265;49.680;8.608;2024-03-23T10:27:58;10.85;;;1.08;;
45540;SDS011;31265;49.680;8.608;2024-03-23T10:30:27;5.18;;;1.10;;
45540;SDS011;31265;49.680;8.608;2024-03-23T10:33:06;2.08;;;0.50;;
45540;SDS011;31265;49.680;8.608;2024-03-23T10:35:34;2.50;;;0.95;;
45540;SDS011;31265;49.680;8.608;2024-03-23T10:38:04;3.63;;;0.90;;
45540;SDS011;31265;49.680;8.608;2024-03-23T10:40:35;6.22;;;1.15;;
45540;SDS011;31265;49.680;8.608;2024-03-23T10:43:02;2.95;;;0.80;;
45540;SDS011;31265;49.680;8.608;2024-03-23T10:45:30;4.15;;;0.63;;
45540;SDS011;31265;49.680;8.608;2024-03-23T10:47:57;2.20;;;1.00;;
45540;SDS011;31265;49.680;8.608;2024-03-23T10:50:30;3.90;;;0.50;;
45540;SDS011;31265;49.680;8.608;2024-03-23T10:52:56;7.80;;;1.00;;
45540;SDS011;31265;49.680;8.608;2024-03-23T10:55:25;4.50;;;0.80;;
45540;SDS011;31265;49.680;8.608;2024-03-23T10:57:55;3.50;;;1.15;;
45540;SDS011;31265;49.680;8.608;2024-03-23T11:00:25;1.67;;;0.50;;
45540;SDS011;31265;49.680;8.608;2024-03-23T11:02:52;1.85;;;0.70;;
45540;SDS011;31265;49.680;8.608;2024-03-23T11:05:30;1.50;;;0.60;;
45540;SDS011;31265;49.680;8.608;2024-03-23T11:07:57;4.40;;;0.80;;
45540;SDS011;31265;49.680;8.608;2024-03-23T11:10:26;1.25;;;0.52;;
45540;SDS011;31265;49.680;8.608;2024-03-23T11:12:55;3.72;;;0.52;;
45540;SDS011;31265;49.680;8.608;2024-03-23T11:15:23;1.88;;;0.68;;
45540;SDS011;31265;49.680;8.608;2024-03-23T11:18:04;1.55;;;0.60;;
45540;SDS011;31265;49.680;8.608;2024-03-23T11:20:35;3.67;;;0.28;;
45540;SDS011;31265;49.680;8.608;2024-03-23T11:23:01;1.00;;;0.50;;
45540;SDS011;31265;49.680;8.608;2024-03-23T11:25:34;1.30;;;0.80;;
45540;SDS011;31265;49.680;8.608;2024-03-23T11:28:10;6.75;;;0.70;;
45540;SDS011;31265;49.680;8.608;2024-03-23T11:30:39;1.17;;;0.45;;
45540;SDS011;31265;49.680;8.608;2024-03-23T11:33:05;2.45;;;0.75;;
45540;SDS011;31265;49.680;8.608;2024-03-23T11:35:33;1.67;;;0.38;;
45540;SDS011;31265;49.680;8.608;2024-03-23T11:38:01;2.97;;;0.65;;
45540;SDS011;31265;49.680;8.608;2024-03-23T11:40:30;1.48;;;0.22;;
45540;SDS011;31265;49.680;8.608;2024-03-23T11:42:58;1.45;;;0.52;;
45540;SDS011;31265;49.680;8.608;2024-03-23T11:45:27;0.90;;;0.40;;
45540;SDS011;31265;49.680;8.608;2024-03-23T11:48:06;1.90;;;0.40;;
45540;SDS011;31265;49.680;8.608;2024-03-23T11:50:36;0.73;;;0.20;;
45540;SDS011;31265;49.680;8.608;2024-03-23T11:53:07;0.47;;;0.20;;
45540;SDS011;31265;49.680;8.608;2024-03-23T11:55:39;2.75;;;0.35;;
45540;SDS011;31265;49.680;8.608;2024-03-23T11:58:08;0.47;;;0.35;;
45540;SDS011;31265;49.680;8.608;2024-03-23T12:00:37;0.73;;;0.30;;
45540;SDS011;31265;49.680;8.608;2024-03-23T12:03:04;1.95;;;0.70;;
45540;SDS011;31265;49.680;8.608;2024-03-23T12:05:36;0.40;;;0.20;;
45540;SDS011;31265;49.680;8.608;2024-03-23T12:08:18;1.27;;;0.52;;
45540;SDS011;31265;49.680;8.608;2024-03-23T12:10:47;2.50;;;0.40;;
45540;SDS011;31265;49.680;8.608;2024-03-23T12:13:15;0.25;;;0.10;;
45540;SDS011;31265;49.680;8.608;2024-03-23T12:15:46;2.53;;;1.15;;
45540;SDS011;31265;49.680;8.608;2024-03-23T12:18:14;0.28;;;0.10;;
45540;SDS011;31265;49.680;8.608;2024-03-23T12:20:41;1.25;;;0.38;;
45540;SDS011;31265;49.680;8.608;2024-03-23T12:23:09;1.63;;;0.35;;
45540;SDS011;31265;49.680;8.608;2024-03-23T12:25:42;1.42;;;0.68;;
45540;SDS011;31265;49.680;8.608;2024-03-23T12:28:08;0.85;;;0.40;;
45540;SDS011;31265;49.680;8.608;2024-03-23T12:30:36;1.17;;;0.43;;
45540;SDS011;31265;49.680;8.608;2024-03-23T12:33:06;1.05;;;0.52;;
45540;SDS011;31265;49.680;8.608;2024-03-23T12:35:34;1.55;;;0.57;;
45540;SDS011;31265;49.680;8.608;2024-03-23T12:38:00;1.42;;;0.40;;
45540;SDS011;31265;49.680;8.608;2024-03-23T12:40:29;1.60;;;0.40;;
45540;SDS011;31265;49.680;8.608;2024-03-23T12:42:57;0.80;;;0.30;;
45540;SDS011;31265;49.680;8.608;2024-03-23T12:45:25;2.15;;;0.60;;
45540;SDS011;31265;49.680;8.608;2024-03-23T12:47:54;3.30;;;0.75;;
45540;SDS011;31265;49.680;8.608;2024-03-23T12:50:23;0.80;;;0.40;;
45540;SDS011;31265;49.680;8.608;2024-03-23T12:52:49;1.30;;;0.52;;
45540;SDS011;31265;49.680;8.608;2024-03-23T12:55:17;1.20;;;0.40;;
45540;SDS011;31265;49.680;8.608;2024-03-23T12:57:44;4.03;;;0.60;;
45540;SDS011;31265;49.680;8.608;2024-03-23T13:00:13;1.15;;;0.52;;
45540;SDS011;31265;49.680;8.608;2024-03-23T13:02:41;1.20;;;0.30;;
45540;SDS011;31265;49.680;8.608;2024-03-23T13:05:11;4.82;;;0.40;;
45540;SDS011;31265;49.680;8.608;2024-03-23T13:07:40;2.25;;;0.50;;
45540;SDS011;31265;49.680;8.608;2024-03-23T13:10:08;1.17;;;0.22;;
45540;SDS011;31265;49.680;8.608;2024-03-23T13:12:34;1.73;;;0.75;;
45540;SDS011;31265;49.680;8.608;2024-03-23T13:15:02;3.40;;;0.55;;
45540;SDS011;31265;49.680;8.608;2024-03-23T13:17:29;0.65;;;0.30;;
45540;SDS011;31265;49.680;8.608;2024-03-23T13:20:00;0.63;;;0.17;;
45540;SDS011;31265;49.680;8.608;2024-03-23T13:22:29;0.73;;;0.32;;
45540;SDS011;31265;49.680;8.608;2024-03-23T13:24:58;1.60;;;0.28;;
45540;SDS011;31265;49.680;8.608;2024-03-23T13:27:25;1.55;;;0.43;;
45540;SDS011;31265;49.680;8.608;2024-03-23T13:29:53;3.05;;;0.75;;
45540;SDS011;31265;49.680;8.608;2024-03-23T13:32:19;4.53;;;0.98;;
45540;SDS011;31265;49.680;8.608;2024-03-23T13:34:47;0.52;;;0.30;;
45540;SDS011;31265;49.680;8.608;2024-03-23T13:37:16;3.47;;;0.40;;
45540;SDS011;31265;49.680;8.608;2024-03-23T13:39:44;0.57;;;0.17;;
45540;SDS011;31265;49.680;8.608;2024-03-23T13:42:12;0.32;;;0.10;;
45540;SDS011;31265;49.680;8.608;2024-03-23T13:44:41;0.95;;;0.20;;
45540;SDS011;31265;49.680;8.608;2024-03-23T13:47:08;1.45;;;0.40;;
45540;SDS011;31265;49.680;8.608;2024-03-23T13:49:35;1.52;;;0.57;;
45540;SDS011;31265;49.680;8.608;2024-03-23T13:52:03;0.80;;;0.20;;
45540;SDS011;31265;49.680;8.608;2024-03-23T13:56:59;2.30;;;0.25;;
45540;SDS011;31265;49.680;8.608;2024-03-23T13:59:32;0.95;;;0.10;;
45540;SDS011;31265;49.680;8.608;2024-03-23T14:01:58;3.88;;;0.63;;
45540;SDS011;31265;49.680;8.608;2024-03-23T14:04:26;1.33;;;0.30;;
45540;SDS011;31265;49.680;8.608;2024-03-23T14:06:52;0.20;;;0.10;;
45540;SDS011;31265;49.680;8.608;2024-03-23T14:09:20;2.55;;;0.20;;
45540;SDS011;31265;49.680;8.608;2024-03-23T14:11:49;0.75;;;0.20;;
45540;SDS011;31265;49.680;8.608;2024-03-23T14:14:16;0.40;;;0.13;;
45540;SDS011;31265;49.680;8.608;2024-03-23T14:16:46;1.85;;;0.10;;
45540;SDS011;31265;49.680;8.608;2024-03-23T14:19:13;0.20;;;0.10;;
45540;SDS011;31265;49.680;8.608;2024-03-23T14:21:40;0.40;;;0.10;;
45540;SDS011;31265;49.680;8.608;2024-03-23T14:24:08;0.60;;;0.20;;
45540;SDS011;31265;49.680;8.608;2024-03-23T14:26:37;1.13;;;0.20;;
45540;SDS011;31265;49.680;8.608;2024-03-23T14:29:05;2.10;;;0.30;;
45540;SDS011;31265;49.680;8.608;2024-03-23T14:31:31;1.50;;;0.13;;
45540;SDS011;31265;49.680;8.608;2024-03-23T14:34:00;1.23;;;0.20;;
45540;SDS011;31265;49.680;8.608;2024-03-23T14:36:28;0.98;;;0.32;;
45540;SDS011;31265;49.680;8.608;2024-03-23T14:38:56;0.52;;;0.20;;
45540;SDS011;31265;49.680;8.608;2024-03-23T14:41:23;1.92;;;0.30;;
45540;SDS011;31265;49.680;8.608;2024-03-23T14:43:51;0.85;;;0.43;;
45540;SDS011;31265;49.680;8.608;2024-03-23T14:46:19;0.97;;;0.27;;
45540;SDS011;31265;49.680;8.608;2024-03-23T14:48:47;1.52;;;0.68;;
45540;SDS011;31265;49.680;8.608;2024-03-23T14:51:14;0.70;;;0.00;;
45540;SDS011;31265;49.680;8.608;2024-03-23T14:53:44;0.22;;;0.08;;
45540;SDS011;31265;49.680;8.608;2024-03-23T14:56:11;1.38;;;0.40;;
45540;SDS011;31265;49.680;8.608;2024-03-23T15:01:08;0.22;;;0.10;;
45540;SDS011;31265;49.680;8.608;2024-03-23T15:03:36;1.05;;;0.10;;
45540;SDS011;31265;49.680;8.608;2024-03-23T15:06:04;1.17;;;0.10;;
45540;SDS011;31265;49.680;8.608;2024-03-23T15:08:36;0.95;;;0.25;;
45540;SDS011;31265;49.680;8.608;2024-03-23T15:11:04;0.17;;;0.00;;
45540;SDS011;31265;49.680;8.608;2024-03-23T15:13:32;0.55;;;0.28;;
45540;SDS011;31265;49.680;8.608;2024-03-23T15:16:00;0.65;;;0.20;;
45540;SDS011;31265;49.680;8.608;2024-03-23T15:18:29;0.55;;;0.13;;
45540;SDS011;31265;49.680;8.608;2024-03-23T15:20:57;0.70;;;0.28;;
45540;SDS011;31265;49.680;8.608;2024-03-23T15:23:28;2.35;;;0.43;;
45540;SDS011;31265;49.680;8.608;2024-03-23T15:25:56;0.70;;;0.20;;
45540;SDS011;31265;49.680;8.608;2024-03-23T15:28:23;1.77;;;0.20;;
45540;SDS011;31265;49.680;8.608;2024-03-23T15:30:53;1.23;;;0.10;;
45540;SDS011;31265;49.680;8.608;2024-03-23T15:33:25;1.40;;;0.20;;
45540;SDS011;31265;49.680;8.608;2024-03-23T15:35:52;0.00;;;0.00;;
45540;SDS011;31265;49.680;8.608;2024-03-23T15:38:19;0.20;;;0.10;;
45540;SDS011;31265;49.680;8.608;2024-03-23T15:40:50;0.00;;;0.00;;
45540;SDS011;31265;49.680;8.608;2024-03-23T15:43:18;1.10;;;0.05;;
45540;SDS011;31265;49.680;8.608;2024-03-23T15:45:53;0.28;;;0.10;;
45540;SDS011;31265;49.680;8.608;2024-03-23T15:48:20;1.13;;;0.25;;
45540;SDS011;31265;49.680;8.608;2024-03-23T15:50:51;0.70;;;0.28;;
45540;SDS011;31265;49.680;8.608;2024-03-23T15:53:19;1.30;;;0.63;;
45540;SDS011;31265;49.680;8.608;2024-03-23T15:55:52;0.55;;;0.10;;
45540;SDS011;31265;49.680;8.608;2024-03-23T15:58:21;3.03;;;0.22;;